createdAt,value
2023-03-11T00:00:46.910Z,-4.20
2023-03-11T00:03:17.833Z,-4.17
2023-03-11T00:05:46.722Z,-4.17
2023-03-11T00:08:16.490Z,-4.15
2023-03-11T00:10:45.986Z,-4.15
2023-03-11T00:13:14.744Z,-4.16
2023-03-11T00:15:43.309Z,-4.15
2023-03-11T00:18:11.267Z,-4.12
2023-03-11T00:20:42.062Z,-4.18
2023-03-11T00:23:10.633Z,-4.13
2023-03-11T00:25:39.452Z,-4.12
2023-03-11T00:28:07.898Z,-4.15
2023-03-11T00:30:35.983Z,-4.15
2023-03-11T00:33:04.010Z,-4.14
2023-03-11T00:35:33.667Z,-4.18
2023-03-11T00:38:04.122Z,-4.24
2023-03-11T00:40:32.889Z,-4.31
2023-03-11T00:43:01.249Z,-4.29
2023-03-11T00:45:30.122Z,-4.26
2023-03-11T00:47:58.500Z,-4.34
2023-03-11T00:50:27.912Z,-4.29
2023-03-11T00:52:55.826Z,-4.31
2023-03-11T00:55:26.340Z,-4.30
2023-03-11T00:57:54.797Z,-4.33
2023-03-11T01:00:24.126Z,-4.29
2023-03-11T01:02:52.396Z,-4.33
2023-03-11T01:05:21.898Z,-4.29
2023-03-11T01:07:50.090Z,-4.27
2023-03-11T01:10:18.306Z,-4.31
2023-03-11T01:12:47.849Z,-4.29
2023-03-11T01:15:18.811Z,-4.39
2023-03-11T01:17:46.822Z,-4.32
2023-03-11T01:20:15.177Z,-4.35
2023-03-11T01:22:43.094Z,-4.39
2023-03-11T01:25:12.971Z,-4.41
2023-03-11T01:27:40.952Z,-4.41
2023-03-11T01:30:11.360Z,-4.39
2023-03-11T01:32:39.482Z,-4.39
2023-03-11T01:35:08.229Z,-4.40
2023-03-11T01:37:36.331Z,-4.38
2023-03-11T01:40:05.005Z,-4.40
2023-03-11T01:42:33.194Z,-4.46
2023-03-11T01:45:01.061Z,-4.49
2023-03-11T01:47:38.157Z,-4.54
2023-03-11T01:50:08.573Z,-4.55
2023-03-11T01:52:37.229Z,-4.53
2023-03-11T01:55:06.512Z,-4.60
2023-03-11T01:57:34.585Z,-4.55
2023-03-11T02:00:05.617Z,-4.58
2023-03-11T02:02:36.662Z,-4.56
2023-03-11T02:05:06.761Z,-4.60
2023-03-11T02:07:35.096Z,-4.57
2023-03-11T02:10:03.506Z,-4.63
2023-03-11T02:12:35.199Z,-4.58
2023-03-11T02:15:03.888Z,-4.55
2023-03-11T02:17:32.033Z,-4.53
2023-03-11T02:20:08.651Z,-4.60
2023-03-11T02:22:38.052Z,-4.55
2023-03-11T02:25:09.762Z,-4.53
2023-03-11T02:27:41.372Z,-4.54
2023-03-11T02:30:11.452Z,-4.57
2023-03-11T02:32:39.477Z,-4.62
2023-03-11T02:35:08.205Z,-4.56
2023-03-11T02:37:36.125Z,-4.58
2023-03-11T02:40:37.135Z,-4.53
2023-03-11T02:43:08.603Z,-4.59
2023-03-11T02:45:37.461Z,-4.59
2023-03-11T02:48:05.710Z,-4.67
2023-03-11T02:50:37.406Z,-4.78
2023-03-11T02:53:06.283Z,-4.65
2023-03-11T02:55:34.676Z,-4.66
2023-03-11T02:58:02.534Z,-4.68
2023-03-11T03:00:32.456Z,-4.66
2023-03-11T03:03:00.529Z,-4.67
2023-03-11T03:05:28.626Z,-4.66
2023-03-11T03:07:56.668Z,-4.67
2023-03-11T03:10:24.764Z,-4.63
2023-03-11T03:12:52.787Z,-4.80
2023-03-11T03:15:20.890Z,-4.81
2023-03-11T03:17:51.675Z,-4.77
2023-03-11T03:20:22.735Z,-4.80
2023-03-11T03:22:51.422Z,-4.76
2023-03-11T03:25:19.472Z,-4.81
2023-03-11T03:27:47.426Z,-4.91
2023-03-11T03:30:15.542Z,-4.86
2023-03-11T03:32:43.608Z,-4.87
2023-03-11T03:35:13.057Z,-4.84
2023-03-11T03:37:41.037Z,-4.85
2023-03-11T03:40:10.017Z,-4.90
2023-03-11T03:42:38.641Z,-4.86
2023-03-11T03:45:07.929Z,-4.98
2023-03-11T03:47:36.313Z,-4.89
2023-03-11T03:50:04.434Z,-4.90
2023-03-11T03:52:33.800Z,-4.93
2023-03-11T03:55:01.949Z,-4.98
2023-03-11T03:57:31.300Z,-4.97
2023-03-11T03:59:59.238Z,-4.94
2023-03-11T04:02:27.306Z,-5.01
2023-03-11T04:04:55.386Z,-4.97
2023-03-11T04:07:23.336Z,-5.08
2023-03-11T04:09:52.812Z,-5.09
2023-03-11T04:12:20.849Z,-5.05
2023-03-11T04:14:49.068Z,-5.06
2023-03-11T04:17:17.940Z,-5.07
2023-03-11T04:19:46.179Z,-5.08
2023-03-11T04:22:14.177Z,-5.12
2023-03-11T04:24:42.219Z,-5.13
2023-03-11T04:27:11.679Z,-5.13
2023-03-11T04:29:39.684Z,-5.14
2023-03-11T04:32:07.913Z,-5.00
2023-03-11T04:34:35.898Z,-4.95
2023-03-11T04:37:04.011Z,-5.01
2023-03-11T04:39:32.075Z,-4.94
2023-03-11T04:42:01.663Z,-4.86
2023-03-11T04:44:32.990Z,-4.88
2023-03-11T04:47:00.907Z,-4.88
2023-03-11T04:49:28.838Z,-4.83
2023-03-11T04:51:56.773Z,-4.94
2023-03-11T04:54:24.707Z,-4.83
2023-03-11T04:56:52.660Z,-4.77
2023-03-11T04:59:20.799Z,-4.67
2023-03-11T05:01:50.343Z,-4.70
2023-03-11T05:04:18.341Z,-4.71
2023-03-11T05:06:46.379Z,-4.77
2023-03-11T05:09:14.299Z,-4.63
2023-03-11T05:11:42.382Z,-4.60
2023-03-11T05:14:10.254Z,-4.57
2023-03-11T05:16:38.139Z,-4.48
2023-03-11T05:19:28.182Z,-4.54
2023-03-11T05:21:56.152Z,-4.48
2023-03-11T05:24:25.595Z,-4.31
2023-03-11T05:26:53.573Z,-4.33
2023-03-11T05:29:22.226Z,-4.33
2023-03-11T05:31:50.197Z,-4.23
2023-03-11T05:34:19.790Z,-4.20
2023-03-11T05:36:47.869Z,-4.15
2023-03-11T05:39:15.747Z,-4.06
2023-03-11T05:41:43.867Z,-3.93
2023-03-11T05:44:11.719Z,-4.20
2023-03-11T05:46:39.745Z,-4.19
2023-03-11T05:49:07.685Z,-4.26
2023-03-11T05:51:37.742Z,-4.09
2023-03-11T05:54:11.564Z,-3.92
2023-03-11T05:56:39.449Z,-3.84
2023-03-11T05:59:07.517Z,-3.71
2023-03-11T06:01:35.633Z,-3.59
2023-03-11T06:04:03.736Z,-3.68
2023-03-11T06:06:31.924Z,-3.72
2023-03-11T06:09:02.036Z,-3.63
2023-03-11T06:11:30.100Z,-3.74
2023-03-11T06:13:59.046Z,-3.77
2023-03-11T06:16:27.272Z,-3.66
2023-03-11T06:18:55.371Z,-3.64
2023-03-11T06:21:27.085Z,-3.74
2023-03-11T06:23:55.138Z,-3.56
2023-03-11T06:26:24.997Z,-3.56
2023-03-11T06:28:53.636Z,-3.46
2023-03-11T06:31:22.759Z,-3.52
2023-03-11T06:33:50.935Z,-3.69
2023-03-11T06:36:20.083Z,-3.57
2023-03-11T06:38:48.615Z,-3.60
2023-03-11T06:41:17.219Z,-3.66
2023-03-11T06:43:46.653Z,-3.52
2023-03-11T06:46:16.777Z,-3.43
2023-03-11T06:48:45.930Z,-3.81
2023-03-11T06:51:14.300Z,-3.59
2023-03-11T06:53:42.169Z,-3.50
2023-03-11T06:56:11.308Z,-3.38
2023-03-11T06:58:40.481Z,-3.27
2023-03-11T07:01:11.452Z,-3.39
2023-03-11T07:03:39.946Z,-3.39
2023-03-11T07:06:08.087Z,-3.25
2023-03-11T07:08:35.965Z,-3.15
2023-03-11T07:11:04.890Z,-3.07
2023-03-11T07:13:33.093Z,-3.18
2023-03-11T07:16:01.682Z,-3.04
2023-03-11T07:18:31.241Z,-2.84
2023-03-11T07:20:59.388Z,-2.61
2023-03-11T07:23:27.370Z,-2.34
2023-03-11T07:25:55.823Z,-2.22
2023-03-11T07:28:23.803Z,-2.28
2023-03-11T07:30:52.013Z,-2.47
2023-03-11T07:33:20.255Z,-2.60
2023-03-11T07:35:49.596Z,-2.58
2023-03-11T07:38:17.993Z,-2.60
2023-03-11T07:40:46.551Z,-2.61
2023-03-11T07:43:15.066Z,-2.50
2023-03-11T07:45:43.154Z,-2.39
2023-03-11T07:48:11.120Z,-2.16
2023-03-11T07:50:39.201Z,-2.26
2023-03-11T07:53:08.773Z,-2.37
2023-03-11T07:55:36.848Z,-2.36
2023-03-11T07:58:04.723Z,-2.44
2023-03-11T08:00:32.868Z,-2.48
2023-03-11T08:03:01.539Z,-2.74
2023-03-11T08:05:29.503Z,-2.79
2023-03-11T08:07:57.739Z,-2.87
2023-03-11T08:10:27.282Z,-2.67
2023-03-11T08:12:55.529Z,-2.69
2023-03-11T08:15:23.555Z,-2.68
2023-03-11T08:17:51.931Z,-2.49
2023-03-11T08:20:20.011Z,-2.55
2023-03-11T08:22:57.582Z,-2.50
2023-03-11T08:25:27.789Z,-2.39
2023-03-11T08:27:55.740Z,-2.33
2023-03-11T08:30:24.022Z,-2.25
2023-03-11T08:32:52.089Z,-2.21
2023-03-11T08:35:20.252Z,-2.16
2023-03-11T08:37:48.321Z,-2.16
2023-03-11T08:40:16.562Z,-2.13
2023-03-11T08:42:45.982Z,-1.66
2023-03-11T08:45:13.914Z,-1.67
2023-03-11T08:47:42.052Z,-1.66
2023-03-11T08:50:13.265Z,-1.66
2023-03-11T08:52:41.100Z,-1.68
2023-03-11T08:55:11.397Z,-1.90
2023-03-11T08:57:40.288Z,-1.90
2023-03-11T09:00:13.123Z,-1.90
2023-03-11T09:02:41.766Z,-1.97
2023-03-11T09:05:10.167Z,-2.15
2023-03-11T09:07:38.228Z,-2.44
2023-03-11T09:10:06.682Z,-2.34
2023-03-11T09:12:34.813Z,-2.46
2023-03-11T09:15:02.879Z,-2.40
2023-03-11T09:17:32.417Z,-2.27
2023-03-11T09:20:00.560Z,-2.06
2023-03-11T09:22:28.451Z,-2.00
2023-03-11T09:24:56.375Z,-1.92
2023-03-11T09:27:24.446Z,-2.02
2023-03-11T09:29:52.418Z,-1.99
2023-03-11T09:32:20.259Z,-2.13
2023-03-11T09:34:49.654Z,-2.20
2023-03-11T09:37:17.523Z,-2.21
2023-03-11T09:39:45.605Z,-2.22
2023-03-11T09:42:18.648Z,-2.30
2023-03-11T09:44:48.269Z,-2.31
2023-03-11T09:47:34.613Z,-2.23
2023-03-11T09:50:11.940Z,-2.31
2023-03-11T09:52:44.476Z,-2.06
2023-03-11T09:55:22.936Z,-2.14
2023-03-11T09:57:51.923Z,-2.20
2023-03-11T10:00:22.055Z,-2.12
2023-03-11T10:02:51.255Z,-2.36
2023-03-11T10:05:23.468Z,-2.34
2023-03-11T10:07:55.471Z,-2.19
2023-03-11T10:10:23.649Z,-2.19
2023-03-11T10:12:53.649Z,-2.19
2023-03-11T10:15:24.991Z,-2.42
2023-03-11T10:18:06.071Z,-2.30
2023-03-11T10:20:42.343Z,-2.59
2023-03-11T10:23:16.984Z,-2.62
2023-03-11T10:25:51.358Z,-2.53
2023-03-11T10:28:20.396Z,-2.52
2023-03-11T10:30:50.041Z,-2.35
2023-03-11T10:33:22.783Z,-2.28
2023-03-11T10:35:54.133Z,-2.21
2023-03-11T10:38:23.652Z,-2.33
2023-03-11T10:40:54.183Z,-2.19
2023-03-11T10:43:26.994Z,-2.18
2023-03-11T10:45:55.777Z,-2.14
2023-03-11T10:48:25.741Z,-2.20
2023-03-11T10:50:58.473Z,-2.05
2023-03-11T10:53:26.587Z,-2.08
2023-03-11T10:55:55.290Z,-2.08
2023-03-11T10:58:25.034Z,-2.16
2023-03-11T11:01:03.249Z,-2.06
2023-03-11T11:03:32.041Z,-2.06
2023-03-11T11:06:03.479Z,-1.87
2023-03-11T11:08:32.506Z,-1.90
2023-03-11T11:11:01.475Z,-1.80
2023-03-11T11:13:31.408Z,-1.69
2023-03-11T11:16:01.529Z,-1.66
2023-03-11T11:18:30.925Z,-1.65
2023-03-11T11:21:03.250Z,-1.61
2023-03-11T11:23:35.934Z,-1.67
2023-03-11T11:26:05.917Z,-1.65
2023-03-11T11:28:34.607Z,-1.77
2023-03-11T11:31:03.939Z,-1.89
2023-03-11T11:33:33.144Z,-2.02
2023-03-11T11:36:03.593Z,-1.93
2023-03-11T11:38:32.589Z,-2.06
2023-03-11T11:41:03.017Z,-1.95
2023-03-11T11:43:37.839Z,-2.19
2023-03-11T11:46:08.626Z,-2.18
2023-03-11T11:48:41.458Z,-2.21
2023-03-11T11:51:15.418Z,-2.18
2023-03-11T11:53:46.491Z,-2.17
2023-03-11T11:56:14.733Z,-2.12
2023-03-11T11:58:42.736Z,-2.15
2023-03-11T12:01:16.668Z,-2.19
2023-03-11T12:04:01.681Z,-2.04
2023-03-11T12:06:36.131Z,-2.12
2023-03-11T12:09:08.593Z,-2.22
2023-03-11T12:11:41.989Z,-2.08
2023-03-11T12:14:15.037Z,-2.17
2023-03-11T12:16:44.812Z,-2.16
2023-03-11T12:19:18.613Z,-2.09
2023-03-11T12:21:56.892Z,-1.98
2023-03-11T12:24:33.921Z,-2.01
2023-03-11T12:27:05.124Z,-1.89
2023-03-11T12:29:35.425Z,-1.89
2023-03-11T12:32:04.029Z,-1.95
2023-03-11T12:34:35.291Z,-1.97
2023-03-11T12:37:14.767Z,-2.05
2023-03-11T12:39:42.775Z,-1.95
2023-03-11T12:42:19.948Z,-1.94
2023-03-11T12:44:48.911Z,-2.01
2023-03-11T12:47:21.952Z,-2.18
2023-03-11T12:49:51.821Z,-2.14
2023-03-11T12:52:31.069Z,-2.15
2023-03-11T12:55:17.734Z,-2.19
2023-03-11T12:57:52.684Z,-2.08
2023-03-11T13:00:24.330Z,-1.95
2023-03-11T13:03:03.648Z,-2.08
2023-03-11T13:05:34.222Z,-2.05
2023-03-11T13:08:05.530Z,-2.04
2023-03-11T13:10:39.483Z,-2.11
2023-03-11T13:13:25.898Z,-2.08
2023-03-11T13:15:54.159Z,-1.98
2023-03-11T13:18:26.162Z,-1.93
2023-03-11T13:20:57.591Z,-2.00
2023-03-11T13:23:35.222Z,-1.94
2023-03-11T13:26:20.334Z,-1.90
2023-03-11T13:29:01.938Z,-1.99
2023-03-11T13:31:44.883Z,-1.95
2023-03-11T13:34:16.217Z,-2.04
2023-03-11T13:37:01.757Z,-2.02
2023-03-11T13:39:38.134Z,-1.92
2023-03-11T13:42:15.449Z,-1.92
2023-03-11T13:44:43.515Z,-1.98
2023-03-11T13:47:15.808Z,-1.88
2023-03-11T13:49:46.199Z,-1.88
2023-03-11T13:52:16.204Z,-1.84
2023-03-11T13:54:47.945Z,-1.87
2023-03-11T13:57:24.772Z,-1.88
2023-03-11T13:59:53.525Z,-1.92
2023-03-11T14:02:24.397Z,-2.01
2023-03-11T14:04:54.217Z,-1.88
2023-03-11T14:07:25.553Z,-1.95
2023-03-11T14:10:08.180Z,-1.93
2023-03-11T14:12:36.674Z,-1.95
2023-03-11T14:15:06.700Z,-1.87
2023-03-11T14:17:34.747Z,-1.91
2023-03-11T14:20:08.084Z,-2.05
2023-03-11T14:22:36.606Z,-1.98
2023-03-11T14:25:08.930Z,-2.01
2023-03-11T14:27:37.138Z,-2.07
2023-03-11T14:30:06.737Z,-1.93
2023-03-11T14:32:35.901Z,-1.87
2023-03-11T14:35:19.506Z,-1.88
2023-03-11T14:37:47.677Z,-1.82
2023-03-11T14:40:25.622Z,-1.79
2023-03-11T14:42:55.866Z,-1.75
2023-03-11T14:45:25.417Z,-1.85
2023-03-11T14:47:56.592Z,-1.84
2023-03-11T14:50:25.954Z,-1.73
2023-03-11T14:52:56.745Z,-1.71
2023-03-11T14:55:28.346Z,-1.62
2023-03-11T14:57:58.213Z,-1.66
2023-03-11T15:00:27.585Z,-1.71
2023-03-11T15:03:03.320Z,-1.81
2023-03-11T15:05:36.169Z,-1.71
2023-03-11T15:08:05.431Z,-1.74
2023-03-11T15:10:37.116Z,-1.78
2023-03-11T15:13:06.293Z,-1.78
2023-03-11T15:15:34.253Z,-1.70
2023-03-11T15:18:02.702Z,-1.84
2023-03-11T15:20:32.559Z,-1.73
2023-03-11T15:23:02.107Z,-1.69
2023-03-11T15:25:31.398Z,-1.73
2023-03-11T15:28:00.848Z,-1.75
2023-03-11T15:30:30.320Z,-1.77
2023-03-11T15:32:59.065Z,-1.72
2023-03-11T15:35:27.953Z,-1.66
2023-03-11T15:38:10.745Z,-1.66
2023-03-11T15:40:45.358Z,-1.66
2023-03-11T15:43:28.790Z,-1.66
2023-03-11T15:45:59.397Z,-1.66
2023-03-11T15:48:28.073Z,-1.62
2023-03-11T15:50:57.231Z,-1.67
2023-03-11T15:53:26.177Z,-1.65
2023-03-11T15:55:55.006Z,-1.55
2023-03-11T15:58:23.110Z,-1.57
2023-03-11T16:00:52.348Z,-1.63
2023-03-11T16:03:21.857Z,-1.64
2023-03-11T16:05:50.134Z,-1.50
2023-03-11T16:08:18.099Z,-1.49
2023-03-11T16:10:46.307Z,-1.46
2023-03-11T16:13:14.979Z,-1.45
2023-03-11T16:15:43.386Z,-1.47
2023-03-11T16:18:11.349Z,-1.52
2023-03-11T16:20:42.969Z,-1.43
2023-03-11T16:23:14.134Z,-1.49
2023-03-11T16:25:42.181Z,-1.46
2023-03-11T16:28:13.313Z,-1.44
2023-03-11T16:30:41.370Z,-1.40
2023-03-11T16:33:09.421Z,-1.38
2023-03-11T16:35:39.499Z,-1.35
2023-03-11T16:38:10.202Z,-1.43
2023-03-11T16:40:38.348Z,-1.51
2023-03-11T16:43:07.572Z,-1.38
2023-03-11T16:45:35.541Z,-1.35
2023-03-11T16:48:03.927Z,-1.33
2023-03-11T16:50:31.979Z,-1.27
2023-03-11T16:53:00.499Z,-1.20
2023-03-11T16:55:30.392Z,-1.29
2023-03-11T16:57:58.731Z,-1.28
2023-03-11T17:00:26.960Z,-1.23
2023-03-11T17:02:54.913Z,-1.36
2023-03-11T17:05:22.933Z,-1.34
2023-03-11T17:07:53.880Z,-1.29
2023-03-11T17:10:24.116Z,-1.30
2023-03-11T17:12:53.673Z,-1.22
2023-03-11T17:15:21.659Z,-1.30
2023-03-11T17:17:49.712Z,-1.27
2023-03-11T17:20:19.954Z,-1.21
2023-03-11T17:22:49.177Z,-1.27
2023-03-11T17:25:17.081Z,-1.20
2023-03-11T17:27:45.110Z,-1.10
2023-03-11T17:30:19.423Z,-1.08
2023-03-11T17:32:52.470Z,-1.07
2023-03-11T17:35:20.491Z,-1.10
2023-03-11T17:37:48.486Z,-0.99
2023-03-11T17:40:16.436Z,-1.06
2023-03-11T17:42:44.510Z,-1.09
2023-03-11T17:45:12.895Z,-1.00
2023-03-11T17:47:42.289Z,-0.99
2023-03-11T17:50:11.121Z,-0.95
2023-03-11T17:52:39.101Z,-1.05
2023-03-11T17:55:07.832Z,-0.94
2023-03-11T17:57:45.139Z,-0.87
2023-03-11T18:00:15.048Z,-0.88
2023-03-11T18:02:44.669Z,-0.83
2023-03-11T18:05:12.657Z,-0.87
2023-03-11T18:07:40.712Z,-0.92
2023-03-11T18:10:09.178Z,-0.83
2023-03-11T18:12:37.098Z,-0.79
2023-03-11T18:15:06.363Z,-0.74
2023-03-11T18:17:35.925Z,-0.73
2023-03-11T18:20:06.002Z,-0.73
2023-03-11T18:22:35.386Z,-0.71
2023-03-11T18:25:03.508Z,-0.73
2023-03-11T18:27:31.579Z,-0.67
2023-03-11T18:30:00.328Z,-0.68
2023-03-11T18:32:28.314Z,-0.58
2023-03-11T18:34:56.358Z,-0.50
2023-03-11T18:37:26.338Z,-0.54
2023-03-11T18:39:54.354Z,-0.50
2023-03-11T18:42:22.252Z,-0.51
2023-03-11T18:44:50.437Z,-0.50
2023-03-11T18:47:18.347Z,-0.53
2023-03-11T18:49:46.650Z,-0.49
2023-03-11T18:52:14.704Z,-0.43
2023-03-11T18:54:44.747Z,-0.48
2023-03-11T18:57:12.651Z,-0.45
2023-03-11T18:59:40.593Z,-0.47
2023-03-11T19:02:08.711Z,-0.52
2023-03-11T19:04:36.718Z,-0.49
2023-03-11T19:07:05.122Z,-0.42
2023-03-11T19:09:33.098Z,-0.50
2023-03-11T19:12:02.365Z,-0.41
2023-03-11T19:14:30.365Z,-0.37
2023-03-11T19:16:58.239Z,-0.41
2023-03-11T19:19:26.431Z,-0.41
2023-03-11T19:21:54.285Z,-0.40
2023-03-11T19:24:22.263Z,-0.36
2023-03-11T19:26:50.249Z,-0.28
2023-03-11T19:29:19.900Z,-0.29
2023-03-11T19:31:47.926Z,-0.27
2023-03-11T19:34:15.878Z,-0.26
2023-03-11T19:36:43.850Z,-0.29
2023-03-11T19:39:12.009Z,-0.28
2023-03-11T19:41:40.083Z,-0.25
2023-03-11T19:44:08.170Z,-0.18
2023-03-11T19:46:37.692Z,-0.10
2023-03-11T19:49:05.902Z,-0.22
2023-03-11T19:51:48.513Z,-0.19
2023-03-11T19:54:17.564Z,-0.19
2023-03-11T19:56:45.581Z,-0.12
2023-03-11T19:59:13.512Z,-0.12
2023-03-11T20:01:43.406Z,-0.05
2023-03-11T20:04:11.600Z,-0.03
2023-03-11T20:06:40.037Z,0.05
2023-03-11T20:09:08.148Z,-0.03
2023-03-11T20:11:38.772Z,-0.01
2023-03-11T20:14:06.918Z,0.10
2023-03-11T20:16:34.919Z,0.15
2023-03-11T20:19:04.286Z,0.21
2023-03-11T20:21:32.449Z,0.25
2023-03-11T20:24:00.297Z,0.12
2023-03-11T20:26:28.216Z,0.06
2023-03-11T20:28:56.920Z,0.15
2023-03-11T20:31:25.888Z,0.19
2023-03-11T20:33:54.064Z,0.20
2023-03-11T20:36:24.712Z,0.27
2023-03-11T20:38:53.910Z,0.23
2023-03-11T20:41:23.481Z,0.27
2023-03-11T20:43:52.979Z,0.37
2023-03-11T20:46:21.031Z,0.30
2023-03-11T20:48:49.268Z,0.37
2023-03-11T20:51:20.469Z,0.39
2023-03-11T20:53:50.201Z,0.43
2023-03-11T20:56:18.659Z,0.43
2023-03-11T20:58:48.860Z,0.46
2023-03-11T21:01:18.168Z,0.40
2023-03-11T21:03:46.261Z,0.45
2023-03-11T21:06:15.536Z,0.44
2023-03-11T21:08:43.524Z,0.50
2023-03-11T21:11:12.936Z,0.49
2023-03-11T21:13:40.995Z,0.50
2023-03-11T21:16:09.866Z,0.54
2023-03-11T21:18:38.024Z,0.67
2023-03-11T21:21:08.532Z,0.66
2023-03-11T21:23:36.654Z,0.62
2023-03-11T21:26:05.404Z,0.70
2023-03-11T21:28:35.523Z,0.74
2023-03-11T21:31:04.410Z,0.74
2023-03-11T21:33:32.737Z,0.72
2023-03-11T21:36:01.604Z,0.68
2023-03-11T21:38:30.203Z,0.73
2023-03-11T21:41:06.288Z,0.75
2023-03-11T21:43:36.075Z,0.76
2023-03-11T21:46:04.302Z,0.80
2023-03-11T21:48:32.484Z,0.86
2023-03-11T21:51:01.079Z,0.87
2023-03-11T21:53:29.324Z,0.89
2023-03-11T21:55:57.460Z,0.97
2023-03-11T21:58:25.445Z,0.89
2023-03-11T22:00:55.160Z,0.90
2023-03-11T22:03:23.845Z,0.91
2023-03-11T22:05:56.742Z,1.03
2023-03-11T22:08:24.936Z,1.00
2023-03-11T22:10:53.047Z,1.06
2023-03-11T22:13:21.218Z,1.02
2023-03-11T22:15:49.398Z,1.06
2023-03-11T22:18:18.927Z,1.13
2023-03-11T22:20:46.894Z,1.20
2023-03-11T22:23:15.028Z,1.13
2023-03-11T22:25:42.882Z,1.16
2023-03-11T22:28:13.085Z,1.20
2023-03-11T22:30:41.118Z,1.22
2023-03-11T22:33:09.125Z,1.28
2023-03-11T22:35:38.513Z,1.34
2023-03-11T22:38:06.646Z,1.32
2023-03-11T22:40:35.011Z,1.30
2023-03-11T22:43:03.026Z,1.21
2023-03-11T22:45:31.118Z,1.33
2023-03-11T22:47:59.066Z,1.39
2023-03-11T22:50:27.098Z,1.31
2023-03-11T22:52:56.493Z,1.37
2023-03-11T22:55:24.376Z,1.37
2023-03-11T22:57:52.331Z,1.34
2023-03-11T23:00:21.238Z,1.41
2023-03-11T23:02:50.161Z,1.47
2023-03-11T23:05:18.196Z,1.52
2023-03-11T23:07:46.096Z,1.48
2023-03-11T23:10:16.011Z,1.49
2023-03-11T23:12:44.400Z,1.46
2023-03-11T23:15:13.689Z,1.56
2023-03-11T23:17:42.064Z,1.60
2023-03-11T23:20:12.141Z,1.48
2023-03-11T23:22:40.981Z,1.60
2023-03-11T23:25:11.136Z,1.63
2023-03-11T23:27:44.012Z,1.68
2023-03-11T23:30:13.275Z,1.71
2023-03-11T23:32:41.438Z,1.72
2023-03-11T23:35:09.645Z,1.71
2023-03-11T23:37:37.539Z,1.72
2023-03-11T23:40:06.289Z,1.74
2023-03-11T23:42:35.039Z,1.75
2023-03-11T23:45:04.866Z,1.78
2023-03-11T23:47:32.838Z,1.78
2023-03-11T23:50:00.840Z,1.79
2023-03-11T23:52:28.907Z,1.85
2023-03-11T23:54:56.901Z,1.92
2023-03-11T23:57:24.934Z,1.92
2023-03-11T23:59:52.812Z,1.90
